createdAt,value
2022-10-11T00:01:39.863Z,84.22
2022-10-11T00:04:11.666Z,84.26
2022-10-11T00:06:43.991Z,84.88
2022-10-11T00:09:16.072Z,85.78
2022-10-11T00:11:47.727Z,85.56
2022-10-11T00:14:19.463Z,85.85
2022-10-11T00:16:51.216Z,86.59
2022-10-11T00:19:23.853Z,86.41
2022-10-11T00:21:56.061Z,85.46
2022-10-11T00:24:27.809Z,85.14
2022-10-11T00:26:59.696Z,84.90
2022-10-11T00:29:31.446Z,84.76
2022-10-11T00:32:04.606Z,84.64
2022-10-11T00:34:37.604Z,84.70
2022-10-11T00:37:07.839Z,84.78
2022-10-11T00:39:39.486Z,84.70
2022-10-11T00:42:15.368Z,84.87
2022-10-11T00:44:49.706Z,84.93
2022-10-11T00:47:24.449Z,86.05
2022-10-11T00:49:59.039Z,86.80
2022-10-11T00:52:35.909Z,87.28
2022-10-11T00:55:10.177Z,87.08
2022-10-11T00:57:46.145Z,87.44
2022-10-11T01:00:18.871Z,87.72
2022-10-11T01:02:49.225Z,87.62
2022-10-11T01:05:30.302Z,87.00
2022-10-11T01:08:03.571Z,86.40
2022-10-11T01:10:35.875Z,87.26
2022-10-11T01:13:19.249Z,87.37
2022-10-11T01:15:56.089Z,87.13
2022-10-11T01:18:36.849Z,86.65
2022-10-11T01:21:17.630Z,86.87
2022-10-11T01:24:34.434Z,88.22
2022-10-11T01:27:30.950Z,88.53
2022-10-11T01:30:15.796Z,88.68
2022-10-11T01:32:55.403Z,88.77
2022-10-11T01:35:34.726Z,88.18
2022-10-11T01:38:14.211Z,88.38
2022-10-11T01:40:52.187Z,87.90
2022-10-11T01:43:27.357Z,87.91
2022-10-11T01:46:02.100Z,87.56
2022-10-11T01:48:34.151Z,86.94
2022-10-11T01:51:06.157Z,87.35
2022-10-11T01:53:57.381Z,87.38
2022-10-11T01:56:53.287Z,88.01
2022-10-11T01:59:40.566Z,87.05
2022-10-11T02:02:28.798Z,87.19
2022-10-11T02:05:09.631Z,87.76
2022-10-11T02:07:46.399Z,87.99
2022-10-11T02:10:27.436Z,88.33
2022-10-11T02:13:03.111Z,88.90
2022-10-11T02:15:39.579Z,89.58
2022-10-11T02:18:16.756Z,89.94
2022-10-11T02:20:50.074Z,89.34
2022-10-11T02:23:27.803Z,89.71
2022-10-11T02:26:01.482Z,89.55
2022-10-11T02:28:36.744Z,89.54
2022-10-11T02:31:12.738Z,90.20
2022-10-11T02:33:49.756Z,90.55
2022-10-11T02:36:27.816Z,90.79
2022-10-11T02:39:07.809Z,90.91
2022-10-11T02:41:43.163Z,91.26
2022-10-11T02:44:19.995Z,91.02
2022-10-11T02:46:53.209Z,90.62
2022-10-11T02:49:25.688Z,90.62
2022-10-11T02:51:59.802Z,91.05
2022-10-11T02:54:31.672Z,90.87
2022-10-11T02:57:03.309Z,90.71
2022-10-11T02:59:34.979Z,90.96
2022-10-11T03:02:06.799Z,91.16
2022-10-11T03:04:38.496Z,91.38
2022-10-11T03:07:10.206Z,91.50
2022-10-11T03:09:42.016Z,90.97
2022-10-11T03:12:13.707Z,90.99
2022-10-11T03:14:46.015Z,91.46
2022-10-11T03:17:35.659Z,91.69
2022-10-11T03:20:10.629Z,91.57
2022-10-11T03:22:42.333Z,92.05
2022-10-11T03:25:14.560Z,92.57
2022-10-11T03:27:46.243Z,92.18
2022-10-11T03:30:18.607Z,92.35
2022-10-11T03:32:50.815Z,92.18
2022-10-11T03:35:22.534Z,92.30
2022-10-11T03:37:54.249Z,92.73
2022-10-11T03:40:25.934Z,92.91
2022-10-11T03:42:59.042Z,93.22
2022-10-11T03:45:30.723Z,93.33
2022-10-11T03:48:03.183Z,92.96
2022-10-11T03:50:35.351Z,92.50
2022-10-11T03:53:08.402Z,92.58
2022-10-11T03:55:42.347Z,92.44
2022-10-11T03:58:14.805Z,91.82
2022-10-11T04:00:45.969Z,92.53
2022-10-11T04:03:19.808Z,92.10
2022-10-11T04:05:52.553Z,91.68
2022-10-11T04:08:24.222Z,91.17
2022-10-11T04:10:55.965Z,90.87
2022-10-11T04:13:27.708Z,90.91
2022-10-11T04:15:59.383Z,90.51
2022-10-11T04:18:31.606Z,89.93
2022-10-11T04:21:03.253Z,89.89
2022-10-11T04:23:35.687Z,89.82
2022-10-11T04:26:09.003Z,89.50
2022-10-11T04:28:41.378Z,89.68
2022-10-11T04:31:13.598Z,89.52
2022-10-11T04:33:45.328Z,89.29
2022-10-11T04:36:17.311Z,88.88
2022-10-11T04:38:48.955Z,89.03
2022-10-11T04:41:20.661Z,89.38
2022-10-11T04:43:52.245Z,88.91
2022-10-11T04:46:24.023Z,88.45
2022-10-11T04:48:56.023Z,88.31
2022-10-11T04:51:28.784Z,88.33
2022-10-11T04:54:01.164Z,87.60
2022-10-11T04:56:33.029Z,88.45
2022-10-11T04:59:04.729Z,88.91
2022-10-11T05:01:36.526Z,88.58
2022-10-11T05:04:08.463Z,88.58
2022-10-11T05:06:40.214Z,88.23
2022-10-11T05:09:12.382Z,87.96
2022-10-11T05:11:44.063Z,88.64
2022-10-11T05:14:16.169Z,88.78
2022-10-11T05:16:50.998Z,88.44
2022-10-11T05:19:23.957Z,88.55
2022-10-11T05:21:55.035Z,87.99
2022-10-11T05:24:26.805Z,88.45
2022-10-11T05:27:03.012Z,88.07
2022-10-11T05:29:35.400Z,88.13
2022-10-11T05:32:07.674Z,88.95
2022-10-11T05:34:39.374Z,89.35
2022-10-11T05:37:10.969Z,88.82
2022-10-11T05:39:42.585Z,88.98
2022-10-11T05:42:14.736Z,90.05
2022-10-11T05:44:48.043Z,90.05
2022-10-11T05:47:21.320Z,90.49
2022-10-11T05:49:53.081Z,90.79
2022-10-11T05:52:24.744Z,90.85
2022-10-11T05:54:56.507Z,91.08
2022-10-11T05:57:28.243Z,90.38
2022-10-11T06:00:00.143Z,90.52
2022-10-11T06:02:32.066Z,90.70
2022-10-11T06:05:03.978Z,89.49
2022-10-11T06:07:38.447Z,89.67
2022-10-11T06:10:11.389Z,89.64
2022-10-11T06:12:44.338Z,89.52
2022-10-11T06:15:16.071Z,90.19
2022-10-11T06:17:49.023Z,89.87
2022-10-11T06:20:20.986Z,89.82
2022-10-11T06:22:52.694Z,89.86
2022-10-11T06:25:24.643Z,89.32
2022-10-11T06:27:56.351Z,88.67
2022-10-11T06:30:28.178Z,88.59
2022-10-11T06:33:03.873Z,88.74
2022-10-11T06:35:36.642Z,89.29
2022-10-11T06:38:08.331Z,89.52
2022-10-11T06:40:40.127Z,89.22
2022-10-11T06:43:11.955Z,89.00
2022-10-11T06:45:43.602Z,88.51
2022-10-11T06:48:15.317Z,88.40
2022-10-11T06:50:59.552Z,87.76
2022-10-11T06:53:32.341Z,87.13
2022-10-11T06:56:09.891Z,86.79
2022-10-11T06:58:42.190Z,86.23
2022-10-11T07:01:18.607Z,85.78
2022-10-11T07:03:51.180Z,85.73
2022-10-11T07:06:25.069Z,85.54
2022-10-11T07:08:57.422Z,85.05
2022-10-11T07:11:30.420Z,84.92
2022-10-11T07:14:07.381Z,84.52
2022-10-11T07:16:39.440Z,83.85
2022-10-11T07:19:11.909Z,83.64
2022-10-11T07:21:43.738Z,83.31
2022-10-11T07:24:15.559Z,83.26
2022-10-11T07:26:47.451Z,82.75
2022-10-11T07:29:19.324Z,83.10
2022-10-11T07:31:51.755Z,83.03
2022-10-11T07:34:23.910Z,82.92
2022-10-11T07:36:55.652Z,82.43
2022-10-11T07:39:27.802Z,82.32
2022-10-11T07:41:59.633Z,82.18
2022-10-11T07:44:31.511Z,82.12
2022-10-11T07:47:06.649Z,82.02
2022-10-11T07:49:40.830Z,82.42
2022-10-11T07:52:12.558Z,82.14
2022-10-11T07:54:44.334Z,81.99
2022-10-11T07:57:16.151Z,82.21
2022-10-11T07:59:50.251Z,82.07
2022-10-11T08:02:22.340Z,82.21
2022-10-11T08:04:54.041Z,82.41
2022-10-11T08:07:25.763Z,82.60
2022-10-11T08:09:57.808Z,82.32
2022-10-11T08:12:29.826Z,82.21
2022-10-11T08:15:02.666Z,81.85
2022-10-11T08:17:34.464Z,82.05
2022-10-11T08:20:07.047Z,81.83
2022-10-11T08:22:39.235Z,81.42
2022-10-11T08:25:11.730Z,81.65
2022-10-11T08:27:43.605Z,81.22
2022-10-11T08:30:16.389Z,80.93
2022-10-11T08:32:46.812Z,81.40
2022-10-11T08:35:18.836Z,81.85
2022-10-11T08:37:50.981Z,81.74
2022-10-11T08:40:25.479Z,81.47
2022-10-11T08:43:04.077Z,81.20
2022-10-11T08:45:40.546Z,80.99
2022-10-11T08:48:18.743Z,81.16
2022-10-11T08:50:53.749Z,81.76
2022-10-11T08:53:37.070Z,81.07
2022-10-11T08:56:13.214Z,81.44
2022-10-11T08:58:52.644Z,81.22
2022-10-11T09:01:27.232Z,80.53
2022-10-11T09:04:00.147Z,80.35
2022-10-11T09:06:40.686Z,80.25
2022-10-11T09:09:27.167Z,80.19
2022-10-11T09:12:11.207Z,79.92
2022-10-11T09:15:00.717Z,79.47
2022-10-11T09:17:48.352Z,79.23
2022-10-11T09:20:32.282Z,78.87
2022-10-11T09:23:12.791Z,78.03
2022-10-11T09:25:50.710Z,77.13
2022-10-11T09:28:34.487Z,76.77
2022-10-11T09:31:10.344Z,76.12
2022-10-11T09:33:46.775Z,75.85
2022-10-11T09:36:26.773Z,75.15
2022-10-11T09:39:06.912Z,74.43
2022-10-11T09:41:46.497Z,73.77
2022-10-11T09:44:23.576Z,72.70
2022-10-11T09:46:57.426Z,71.66
2022-10-11T09:49:34.527Z,71.48
2022-10-11T09:52:16.063Z,70.91
2022-10-11T09:54:50.071Z,69.52
2022-10-11T09:57:24.800Z,69.14
2022-10-11T10:00:06.676Z,69.25
2022-10-11T10:02:46.950Z,69.10
2022-10-11T10:05:24.417Z,68.14
2022-10-11T10:08:08.074Z,66.98
2022-10-11T10:10:43.363Z,66.90
2022-10-11T10:13:24.410Z,64.83
2022-10-11T10:15:59.548Z,63.76
2022-10-11T10:18:37.214Z,64.01
2022-10-11T10:21:14.067Z,62.71
2022-10-11T10:23:46.179Z,62.01
2022-10-11T10:26:21.204Z,60.59
2022-10-11T10:29:05.958Z,59.55
2022-10-11T10:32:02.048Z,59.63
2022-10-11T10:34:36.049Z,58.40
2022-10-11T10:37:16.825Z,58.08
2022-10-11T10:39:54.542Z,58.17
2022-10-11T10:42:26.465Z,59.15
2022-10-11T10:45:00.145Z,58.63
2022-10-11T10:47:53.646Z,57.71
2022-10-11T10:50:33.973Z,57.12
2022-10-11T10:53:20.219Z,56.92
2022-10-11T10:55:59.399Z,56.09
2022-10-11T10:58:51.204Z,55.12
2022-10-11T11:01:27.607Z,54.59
2022-10-11T11:04:08.901Z,54.57
2022-10-11T11:06:50.816Z,55.22
2022-10-11T11:09:37.561Z,54.26
2022-10-11T11:12:22.886Z,53.26
2022-10-11T11:15:02.959Z,52.72
2022-10-11T11:17:48.210Z,53.77
2022-10-11T11:20:30.379Z,53.63
2022-10-11T11:23:10.051Z,52.90
2022-10-11T11:25:49.606Z,52.36
2022-10-11T11:28:49.021Z,52.54
2022-10-11T11:31:41.531Z,52.21
2022-10-11T11:34:21.200Z,51.89
2022-10-11T11:36:57.994Z,50.79
2022-10-11T11:39:36.373Z,50.94
2022-10-11T11:42:12.999Z,50.61
2022-10-11T11:44:47.928Z,50.18
2022-10-11T11:47:25.667Z,49.94
2022-10-11T11:50:00.795Z,50.05
2022-10-11T11:52:38.353Z,49.15
2022-10-11T11:55:15.415Z,49.23
2022-10-11T11:58:01.038Z,49.90
2022-10-11T12:00:43.747Z,49.94
2022-10-11T12:03:25.214Z,49.19
2022-10-11T12:06:35.914Z,49.17
2022-10-11T12:09:22.794Z,49.54
2022-10-11T12:11:58.669Z,49.57
2022-10-11T12:14:39.504Z,49.46
2022-10-11T12:17:15.751Z,48.49
2022-10-11T12:20:14.562Z,47.87
2022-10-11T12:23:00.251Z,48.10
2022-10-11T12:25:42.085Z,47.82
2022-10-11T12:28:49.684Z,47.78
2022-10-11T12:31:26.035Z,48.81
2022-10-11T12:34:19.607Z,49.23
2022-10-11T12:36:52.147Z,49.34
2022-10-11T12:39:54.486Z,49.81
2022-10-11T12:42:30.105Z,50.18
2022-10-11T12:45:32.597Z,49.47
2022-10-11T12:48:41.170Z,49.22
2022-10-11T12:51:38.061Z,49.00
2022-10-11T12:54:34.601Z,48.77
2022-10-11T12:57:47.155Z,47.81
2022-10-11T13:00:28.986Z,46.88
2022-10-11T13:03:05.808Z,46.60
2022-10-11T13:05:49.691Z,46.54
2022-10-11T13:08:29.901Z,46.72
2022-10-11T13:11:07.464Z,47.02
2022-10-11T13:13:45.031Z,47.33
2022-10-11T13:16:20.959Z,48.16
2022-10-11T13:18:58.518Z,48.72
2022-10-11T13:21:36.106Z,48.85
2022-10-11T13:24:14.315Z,48.56
2022-10-11T13:26:48.140Z,48.08
2022-10-11T13:29:30.060Z,47.62
2022-10-11T13:32:04.556Z,46.25
2022-10-11T13:34:40.654Z,45.21
2022-10-11T13:37:20.034Z,44.80
2022-10-11T13:39:54.955Z,44.89
2022-10-11T13:42:31.860Z,45.17
2022-10-11T13:45:04.698Z,44.53
2022-10-11T13:47:38.112Z,45.19
2022-10-11T13:50:26.474Z,45.53
2022-10-11T13:53:01.569Z,45.97
2022-10-11T13:55:37.817Z,45.75
2022-10-11T13:58:18.876Z,45.86
2022-10-11T14:00:58.979Z,45.27
2022-10-11T14:03:40.611Z,44.66
2022-10-11T14:06:12.609Z,44.51
2022-10-11T14:08:49.021Z,44.36
2022-10-11T14:11:36.193Z,44.44
2022-10-11T14:14:31.478Z,44.87
2022-10-11T14:17:15.628Z,45.11
2022-10-11T14:19:49.805Z,45.91
2022-10-11T14:22:21.622Z,45.88
2022-10-11T14:24:53.364Z,45.49
2022-10-11T14:27:28.955Z,45.98
2022-10-11T14:30:26.132Z,46.63
2022-10-11T14:32:55.561Z,47.08
2022-10-11T14:35:34.238Z,47.81
2022-10-11T14:38:06.036Z,48.11
2022-10-11T14:40:39.781Z,47.84
2022-10-11T14:43:12.149Z,47.91
2022-10-11T14:45:44.154Z,48.22
2022-10-11T14:48:26.676Z,47.90
2022-10-11T14:51:10.773Z,47.94
2022-10-11T14:53:46.362Z,48.27
2022-10-11T14:56:21.547Z,48.19
2022-10-11T14:58:53.879Z,48.32
2022-10-11T15:01:26.480Z,48.04
2022-10-11T15:03:58.212Z,48.14
2022-10-11T15:06:34.294Z,48.39
2022-10-11T15:09:07.983Z,48.80
2022-10-11T15:11:41.003Z,48.81
2022-10-11T15:14:13.557Z,48.99
2022-10-11T15:16:45.813Z,49.19
2022-10-11T15:19:20.686Z,49.50
2022-10-11T15:21:53.251Z,49.79
2022-10-11T15:24:26.382Z,49.97
2022-10-11T15:26:58.979Z,50.10
2022-10-11T15:29:31.222Z,50.37
2022-10-11T15:32:03.371Z,50.54
2022-10-11T15:34:35.145Z,51.04
2022-10-11T15:37:07.001Z,50.96
2022-10-11T15:39:39.119Z,51.54
2022-10-11T15:42:13.895Z,51.74
2022-10-11T15:44:48.307Z,52.14
2022-10-11T15:47:22.385Z,52.49
2022-10-11T15:49:55.305Z,52.55
2022-10-11T15:52:27.772Z,52.94
2022-10-11T15:54:59.542Z,53.64
2022-10-11T15:57:31.654Z,53.91
2022-10-11T16:00:04.301Z,54.90
2022-10-11T16:02:44.115Z,55.15
2022-10-11T16:05:22.254Z,54.60
2022-10-11T16:07:55.223Z,54.40
2022-10-11T16:10:27.557Z,54.82
2022-10-11T16:13:00.041Z,55.27
2022-10-11T16:15:32.475Z,55.39
2022-10-11T16:18:04.228Z,55.65
2022-10-11T16:20:38.673Z,56.20
2022-10-11T16:23:11.477Z,56.51
2022-10-11T16:25:41.804Z,56.85
2022-10-11T16:28:13.410Z,58.42
2022-10-11T16:30:45.474Z,58.19
2022-10-11T16:33:17.894Z,57.48
2022-10-11T16:35:50.648Z,57.11
2022-10-11T16:38:22.589Z,58.44
2022-10-11T16:40:54.205Z,59.44
2022-10-11T16:43:26.082Z,58.92
2022-10-11T16:46:00.874Z,60.69
2022-10-11T16:48:33.529Z,60.71
2022-10-11T16:51:10.131Z,61.19
2022-10-11T16:53:42.093Z,61.71
2022-10-11T16:56:14.733Z,62.17
2022-10-11T16:58:45.467Z,62.52
2022-10-11T17:01:17.680Z,63.13
2022-10-11T17:03:51.222Z,63.78
2022-10-11T17:06:26.151Z,64.29
2022-10-11T17:08:59.861Z,64.66
2022-10-11T17:11:32.145Z,64.88
2022-10-11T17:14:05.133Z,64.94
2022-10-11T17:16:38.892Z,65.16
2022-10-11T17:19:15.508Z,65.14
2022-10-11T17:21:48.343Z,65.67
2022-10-11T17:24:21.365Z,66.77
2022-10-11T17:26:53.977Z,66.56
2022-10-11T17:29:26.621Z,66.68
2022-10-11T17:31:58.677Z,66.97
2022-10-11T17:34:31.216Z,67.61
2022-10-11T17:37:03.668Z,67.95
2022-10-11T17:39:37.015Z,68.50
2022-10-11T17:42:09.999Z,69.04
2022-10-11T17:44:43.258Z,68.82
2022-10-11T17:47:16.331Z,68.36
2022-10-11T17:49:48.993Z,68.84
2022-10-11T17:52:21.468Z,69.46
2022-10-11T17:54:53.706Z,69.22
2022-10-11T17:57:25.853Z,69.10
2022-10-11T17:59:57.903Z,68.47
2022-10-11T18:02:30.241Z,68.22
2022-10-11T18:05:03.281Z,68.47
2022-10-11T18:07:36.345Z,67.70
2022-10-11T18:10:10.949Z,67.55
2022-10-11T18:12:42.658Z,68.36
2022-10-11T18:15:15.910Z,68.31
2022-10-11T18:17:48.976Z,67.67
2022-10-11T18:20:20.701Z,66.61
2022-10-11T18:22:54.218Z,66.69
2022-10-11T18:25:25.899Z,67.63
2022-10-11T18:27:57.887Z,68.41
2022-10-11T18:30:29.974Z,66.41
2022-10-11T18:33:01.736Z,65.07
2022-10-11T18:35:33.506Z,67.52
2022-10-11T18:38:06.021Z,67.59
2022-10-11T18:40:46.160Z,68.22
2022-10-11T18:43:18.735Z,69.05
2022-10-11T18:45:51.911Z,67.99
2022-10-11T18:48:23.538Z,68.50
2022-10-11T18:51:05.049Z,68.71
2022-10-11T18:53:38.284Z,67.92
2022-10-11T18:56:12.169Z,67.60
2022-10-11T18:58:45.820Z,67.71
2022-10-11T19:01:20.425Z,67.42
2022-10-11T19:03:56.486Z,68.18
2022-10-11T19:06:30.301Z,68.47
2022-10-11T19:09:05.645Z,69.12
2022-10-11T19:11:37.447Z,68.73
2022-10-11T19:14:11.427Z,68.83
2022-10-11T19:16:46.352Z,69.39
2022-10-11T19:19:19.771Z,69.87
2022-10-11T19:21:53.636Z,70.14
2022-10-11T19:24:31.017Z,70.51
2022-10-11T19:27:05.179Z,70.91
2022-10-11T19:29:38.456Z,71.28
2022-10-11T19:32:13.803Z,71.19
2022-10-11T19:34:46.705Z,70.70
2022-10-11T19:37:18.264Z,70.87
2022-10-11T19:39:50.799Z,71.21
2022-10-11T19:42:22.746Z,70.37
2022-10-11T19:44:55.748Z,70.01
2022-10-11T19:47:27.026Z,69.20
2022-10-11T19:49:59.555Z,69.14
2022-10-11T19:52:30.975Z,69.15
2022-10-11T19:55:04.119Z,69.82
2022-10-11T19:57:34.638Z,70.23
2022-10-11T20:00:07.580Z,70.31
2022-10-11T20:02:40.401Z,70.03
2022-10-11T20:05:12.647Z,70.34
2022-10-11T20:07:45.683Z,69.83
2022-10-11T20:10:19.489Z,69.83
2022-10-11T20:12:51.904Z,70.33
2022-10-11T20:15:24.984Z,70.52
2022-10-11T20:17:57.355Z,70.94
2022-10-11T20:20:30.263Z,71.04
2022-10-11T20:23:02.566Z,71.47
2022-10-11T20:25:35.121Z,72.18
2022-10-11T20:28:08.713Z,72.63
2022-10-11T20:30:46.196Z,72.94
2022-10-11T20:33:18.358Z,72.55
2022-10-11T20:36:02.722Z,72.42
2022-10-11T20:38:38.033Z,72.58
2022-10-11T20:41:12.384Z,73.87
2022-10-11T20:43:46.651Z,74.89
2022-10-11T20:46:20.306Z,75.96
2022-10-11T20:48:58.859Z,76.40
2022-10-11T20:51:35.126Z,76.52
2022-10-11T20:54:07.609Z,75.82
2022-10-11T20:56:39.739Z,75.50
2022-10-11T20:59:12.621Z,75.73
2022-10-11T21:01:46.117Z,75.86
2022-10-11T21:04:21.450Z,76.20
2022-10-11T21:06:54.345Z,76.01
2022-10-11T21:09:26.604Z,76.25
2022-10-11T21:12:01.821Z,76.46
2022-10-11T21:14:33.917Z,76.21
2022-10-11T21:17:08.415Z,75.70
2022-10-11T21:19:41.456Z,75.06
2022-10-11T21:22:13.598Z,75.97
2022-10-11T21:24:45.604Z,75.86
2022-10-11T21:27:17.341Z,75.43
2022-10-11T21:29:49.115Z,75.54
2022-10-11T21:32:21.665Z,75.32
2022-10-11T21:34:53.722Z,75.46
2022-10-11T21:37:27.913Z,75.43
2022-10-11T21:39:59.987Z,76.16
2022-10-11T21:42:32.594Z,77.21
2022-10-11T21:45:05.746Z,77.74
2022-10-11T21:47:39.227Z,77.95
2022-10-11T21:50:11.625Z,77.81
2022-10-11T21:52:43.282Z,77.67
2022-10-11T21:55:15.024Z,77.49
2022-10-11T21:57:47.410Z,77.66
2022-10-11T22:00:19.377Z,78.01
2022-10-11T22:02:52.524Z,78.67
2022-10-11T22:05:24.568Z,78.90
2022-10-11T22:07:56.207Z,78.69
2022-10-11T22:10:29.093Z,78.64
2022-10-11T22:12:59.500Z,78.86
2022-10-11T22:15:33.741Z,78.80
2022-10-11T22:18:06.089Z,78.52
2022-10-11T22:20:37.796Z,78.87
2022-10-11T22:23:09.638Z,79.26
2022-10-11T22:25:42.134Z,78.95
2022-10-11T22:28:13.554Z,78.73
2022-10-11T22:30:45.884Z,78.43
2022-10-11T22:33:19.597Z,78.91
2022-10-11T22:35:56.316Z,79.45
2022-10-11T22:38:28.861Z,79.96
2022-10-11T22:40:59.972Z,80.01
2022-10-11T22:43:32.102Z,79.85
2022-10-11T22:46:04.069Z,79.88
2022-10-11T22:48:35.762Z,80.08
2022-10-11T22:51:07.596Z,80.33
2022-10-11T22:53:39.520Z,79.96
2022-10-11T22:56:11.938Z,79.81
2022-10-11T22:58:43.621Z,80.13
2022-10-11T23:01:17.381Z,80.02
2022-10-11T23:03:52.381Z,80.32
2022-10-11T23:06:24.700Z,80.46
2022-10-11T23:08:57.362Z,81.13
2022-10-11T23:11:31.099Z,81.47
2022-10-11T23:14:04.134Z,81.41
2022-10-11T23:16:36.186Z,81.19
2022-10-11T23:19:08.032Z,80.42
2022-10-11T23:21:40.363Z,80.35
2022-10-11T23:24:12.997Z,80.72
2022-10-11T23:26:45.292Z,80.90
2022-10-11T23:29:17.383Z,81.07
2022-10-11T23:31:49.175Z,81.05
2022-10-11T23:34:22.536Z,81.01
2022-10-11T23:36:54.345Z,81.49
2022-10-11T23:39:26.135Z,81.82
2022-10-11T23:41:58.945Z,81.82
2022-10-11T23:44:29.015Z,81.92
2022-10-11T23:47:00.927Z,81.70
2022-10-11T23:49:32.875Z,81.75
2022-10-11T23:52:05.296Z,81.38
2022-10-11T23:54:36.985Z,81.21
2022-10-11T23:57:09.066Z,81.12
2022-10-11T23:59:41.278Z,81.08
